Station Historical Data
Daily Summary for February 14, 2018 Units:  Both    English   Metric
« Previous Day
Next Day »
Daily Weekly Monthly Yearly Custom
  High: Low: Average:
Temperature: TemperatureF °F /  -17.8 °C 54.8 °F /  12.7 °C 57.5 °F /  14.2 °C
Dew Point: DewpointF °F /  -17.8 °C 53.5 °F /  11.9 °C 56.7 °F /  13.7 °C
Humidity: Humidity % 94 % 97 %
Wind Speed: WindSpeedMPH mph /  0 km/h - 3.2 mph /  5.1 km/h
Wind Gust: WindSpeedGustMPH mph /  0 km/h - -
Wind:- - SSW
Pressure: PressureIn in /  0 hPa 30.14 in /  1020.5 hPa -
Precipitation: 0.52 in /  13.21 mm    
Historical Graphs
 
 
Tabular Data for February 14, 2018
Time Temperature Dew Point Pressure Wind Wind Speed Wind Gust Humidity Rainfall Rate (Hourly) solar Conditions
TemperatureF °F /  -17.8 °C DewpointF °F /  -17.8 °C PressureIn in /  0 hPa Calm     Humidity % HourlyPrecipIn in /  0 mm SolarRadiationWatts/m^2 W/m2 Conditions
00:05 55.0 °F /  12.8 °C 53.6 °F /  12 °C 30.43 in /  1030.4 hPa SSE 2.3 mph /  3.7 km/h 2.3 mph /  3.7 km/h 95 % 0.00 in /  0 mm 0.0 W/m2 RA
00:10 54.9 °F /  12.7 °C 53.5 °F /  11.9 °C 30.43 in /  1030.4 hPa Calm     95 % 0.00 in /  0 mm 0.0 W/m2 OVC
00:15 54.9 °F /  12.7 °C 53.5 °F /  11.9 °C 30.43 in /  1030.4 hPa South 1.2 mph /  1.9 km/h 1.2 mph /  1.9 km/h 95 % 0.00 in /  0 mm 0.0 W/m2 OVC
00:19 54.9 °F /  12.7 °C 53.8 °F /  12.1 °C 30.43 in /  1030.4 hPa South 2.3 mph /  3.7 km/h   96 % 0.00 in /  0 mm 0.0 W/m2 OVC
00:25 54.8 °F /  12.7 °C 53.7 °F /  12.1 °C 30.43 in /  1030.4 hPa South 1.2 mph /  1.9 km/h 1.2 mph /  1.9 km/h 96 % 0.00 in /  0 mm 0.0 W/m2 OVC
00:29 54.8 °F /  12.7 °C 53.7 °F /  12.1 °C 30.42 in /  1030 hPa Calm     96 % 0.00 in /  0 mm 0.0 W/m2 OVC
00:34 54.8 °F /  12.7 °C 53.7 °F /  12.1 °C 30.43 in /  1030.4 hPa Calm     96 % 0.00 in /  0 mm 0.0 W/m2 OVC
00:40 54.9 °F /  12.7 °C 53.8 °F /  12.1 °C 30.43 in /  1030.4 hPa South 1.2 mph /  1.9 km/h 1.2 mph /  1.9 km/h 96 % 0.00 in /  0 mm 0.0 W/m2 OVC
00:45 55.0 °F /  12.8 °C 53.9 °F /  12.2 °C 30.42 in /  1030 hPa South 1.2 mph /  1.9 km/h   96 % 0.00 in /  0 mm 0.0 W/m2 OVC
00:50 54.9 °F /  12.7 °C 53.8 °F /  12.1 °C 30.43 in /  1030.4 hPa South 2.3 mph /  3.7 km/h 2.3 mph /  3.7 km/h 96 % 0.00 in /  0 mm 0.0 W/m2 OVC
00:55 54.9 °F /  12.7 °C 53.8 °F /  12.1 °C 30.43 in /  1030.4 hPa South 1.2 mph /  1.9 km/h 1.2 mph /  1.9 km/h 96 % 0.00 in /  0 mm 0.0 W/m2 OVC
01:00 55.0 °F /  12.8 °C 53.9 °F /  12.2 °C 30.43 in /  1030.4 hPa South 1.2 mph /  1.9 km/h 1.2 mph /  1.9 km/h 96 % 0.00 in /  0 mm 0.0 W/m2 OVC
01:05 55.0 °F /  12.8 °C 53.9 °F /  12.2 °C 30.43 in /  1030.4 hPa South 1.2 mph /  1.9 km/h   96 % 0.00 in /  0 mm 0.0 W/m2 -RA
01:10 55.0 °F /  12.8 °C 53.9 °F /  12.2 °C 30.43 in /  1030.4 hPa SSE 1.2 mph /  1.9 km/h   96 % 0.00 in /  0 mm 0.0 W/m2 -RA
01:15 55.2 °F /  12.9 °C 54.4 °F /  12.4 °C 30.43 in /  1030.4 hPa SSE 3.5 mph /  5.6 km/h 3.5 mph /  5.6 km/h 97 % 0.00 in /  0 mm 0.0 W/m2 -RA
01:20 55.2 °F /  12.9 °C 54.1 °F /  12.3 °C 30.42 in /  1030 hPa South 2.3 mph /  3.7 km/h 2.3 mph /  3.7 km/h 96 % 0.01 in /  0.25 mm 0.0 W/m2 -RA
01:25 55.2 °F /  12.9 °C 54.1 °F /  12.3 °C 30.42 in /  1030 hPa Calm     96 % 0.01 in /  0.25 mm 0.0 W/m2 -RA
01:30 55.3 °F /  12.9 °C 54.5 °F /  12.5 °C 30.42 in /  1030 hPa SSE 1.2 mph /  1.9 km/h 1.2 mph /  1.9 km/h 97 % 0.01 in /  0.25 mm 0.0 W/m2 -RA
01:35 55.3 °F /  12.9 °C 54.5 °F /  12.5 °C 30.42 in /  1030 hPa Calm     97 % 0.02 in /  0.51 mm 0.0 W/m2 -RA
01:40 55.2 °F /  12.9 °C 54.4 °F /  12.4 °C 30.42 in /  1030 hPa SSE 5.8 mph /  9.3 km/h 5.8 mph /  9.3 km/h 97 % 0.02 in /  0.51 mm 0.0 W/m2 -RA
01:45 55.2 °F /  12.9 °C 54.4 °F /  12.4 °C 30.42 in /  1030 hPa South 1.2 mph /  1.9 km/h 1.2 mph /  1.9 km/h 97 % 0.02 in /  0.51 mm 0.0 W/m2 -RA
01:50 55.2 °F /  12.9 °C 54.4 °F /  12.4 °C 30.42 in /  1030 hPa SSE 2.3 mph /  3.7 km/h 2.3 mph /  3.7 km/h 97 % 0.02 in /  0.51 mm 0.0 W/m2 -RA
01:55 55.2 °F /  12.9 °C 54.4 °F /  12.4 °C 30.42 in /  1030 hPa South 1.2 mph /  1.9 km/h 1.2 mph /  1.9 km/h 97 % 0.03 in /  0.76 mm 0.0 W/m2 -RA
02:00 55.2 °F /  12.9 °C 54.4 °F /  12.4 °C 30.41 in /  1029.7 hPa South 2.3 mph /  3.7 km/h 2.3 mph /  3.7 km/h 97 % 0.03 in /  0.76 mm 0.0 W/m2 -RA
02:05 55.2 °F /  12.9 °C 54.4 °F /  12.4 °C 30.41 in /  1029.7 hPa South 3.5 mph /  5.6 km/h 3.5 mph /  5.6 km/h 97 % 0.05 in /  1.27 mm 0.0 W/m2 -RA
02:10 55.2 °F /  12.9 °C 54.4 °F /  12.4 °C 30.41 in /  1029.7 hPa South 2.3 mph /  3.7 km/h 2.3 mph /  3.7 km/h 97 % 0.05 in /  1.27 mm 0.0 W/m2 -RA
02:15 55.3 °F /  12.9 °C 54.5 °F /  12.5 °C 30.41 in /  1029.7 hPa SSE 3.5 mph /  5.6 km/h 3.5 mph /  5.6 km/h 97 % 0.05 in /  1.27 mm 0.0 W/m2 -RA
02:20 55.3 °F /  12.9 °C 54.5 °F /  12.5 °C 30.40 in /  1029.3 hPa SSE 3.5 mph /  5.6 km/h 3.5 mph /  5.6 km/h 97 % 0.05 in /  1.27 mm 0.0 W/m2 -RA
02:25 55.3 °F /  12.9 °C 54.5 °F /  12.5 °C 30.40 in /  1029.3 hPa SSE 1.2 mph /  1.9 km/h   97 % 0.05 in /  1.27 mm 0.0 W/m2 -RA
02:30 55.2 °F /  12.9 °C 54.4 °F /  12.4 °C 30.40 in /  1029.3 hPa Calm     97 % 0.06 in /  1.52 mm 0.0 W/m2 -RA
02:35 55.2 °F /  12.9 °C 54.4 °F /  12.4 °C 30.40 in /  1029.3 hPa Calm     97 % 0.06 in /  1.52 mm 0.0 W/m2 -RA
02:40 55.1 °F /  12.8 °C 54.3 °F /  12.4 °C 30.40 in /  1029.3 hPa SSE 1.2 mph /  1.9 km/h 1.2 mph /  1.9 km/h 97 % 0.07 in /  1.78 mm 0.0 W/m2 -RA
02:45 55.1 °F /  12.8 °C 54.5 °F /  12.5 °C 30.40 in /  1029.3 hPa Calm     98 % 0.08 in /  2.03 mm 0.0 W/m2 -RA
02:50 55.2 °F /  12.9 °C 54.6 °F /  12.6 °C 30.39 in /  1029 hPa SSE 2.3 mph /  3.7 km/h 2.3 mph /  3.7 km/h 98 % 0.09 in /  2.29 mm 0.0 W/m2 -RA
02:55 55.1 °F /  12.8 °C 54.5 °F /  12.5 °C 30.39 in /  1029 hPa Calm     98 % 0.08 in /  2.03 mm 0.0 W/m2 -RA
03:00 55.1 °F /  12.8 °C 54.5 °F /  12.5 °C 30.39 in /  1029 hPa Calm     98 % 0.07 in /  1.78 mm 0.0 W/m2 -RA
03:05 55.2 °F /  12.9 °C 54.6 °F /  12.6 °C 30.39 in /  1029 hPa Calm     98 % 0.06 in /  1.52 mm 0.0 W/m2 -RA
03:10 55.1 °F /  12.8 °C 54.5 °F /  12.5 °C 30.39 in /  1029 hPa Calm     98 % 0.07 in /  1.78 mm 0.0 W/m2 -RA
03:15 55.1 °F /  12.8 °C 54.5 °F /  12.5 °C 30.39 in /  1029 hPa SSE 2.3 mph /  3.7 km/h 2.3 mph /  3.7 km/h 98 % 0.08 in /  2.03 mm 0.0 W/m2 -RA
03:20 55.1 °F /  12.8 °C 54.5 °F /  12.5 °C 30.39 in /  1029 hPa Calm     98 % 0.07 in /  1.78 mm 0.0 W/m2 -RA
03:25 55.1 °F /  12.8 °C 54.5 °F /  12.5 °C 30.39 in /  1029 hPa Calm     98 % 0.07 in /  1.78 mm 0.0 W/m2 -RA
03:30 55.1 °F /  12.8 °C 54.5 °F /  12.5 °C 30.39 in /  1029 hPa Calm     98 % 0.06 in /  1.52 mm 0.0 W/m2 -RA
03:35 55.1 °F /  12.8 °C 54.5 °F /  12.5 °C 30.39 in /  1029 hPa SSE 1.2 mph /  1.9 km/h 1.2 mph /  1.9 km/h 98 % 0.06 in /  1.52 mm 0.0 W/m2 -RA
03:40 55.2 °F /  12.9 °C 54.6 °F /  12.6 °C 30.39 in /  1029 hPa SSE 2.3 mph /  3.7 km/h 2.3 mph /  3.7 km/h 98 % 0.05 in /  1.27 mm 0.0 W/m2 -RA
03:45 55.2 °F /  12.9 °C 54.6 °F /  12.6 °C 30.39 in /  1029 hPa Calm     98 % 0.04 in /  1.02 mm 0.0 W/m2 -RA
03:50 55.2 °F /  12.9 °C 54.6 °F /  12.6 °C 30.39 in /  1029 hPa South 1.2 mph /  1.9 km/h 1.2 mph /  1.9 km/h 98 % 0.03 in /  0.76 mm 0.0 W/m2 -RA
03:55 55.2 °F /  12.9 °C 54.6 °F /  12.6 °C 30.39 in /  1029 hPa Calm     98 % 0.03 in /  0.76 mm 0.0 W/m2 -RA
04:00 55.2 °F /  12.9 °C 54.6 °F /  12.6 °C 30.38 in /  1028.7 hPa SSE 3.5 mph /  5.6 km/h 3.5 mph /  5.6 km/h 98 % 0.03 in /  0.76 mm 0.0 W/m2 -RA
04:05 55.1 °F /  12.8 °C 54.5 °F /  12.5 °C 30.38 in /  1028.7 hPa South 1.2 mph /  1.9 km/h   98 % 0.03 in /  0.76 mm 0.0 W/m2 -RA
04:10 55.1 °F /  12.8 °C 54.5 °F /  12.5 °C 30.38 in /  1028.7 hPa South 2.3 mph /  3.7 km/h 2.3 mph /  3.7 km/h 98 % 0.03 in /  0.76 mm 0.0 W/m2 -RA
04:15 55.2 °F /  12.9 °C 54.6 °F /  12.6 °C 30.38 in /  1028.7 hPa South 3.5 mph /  5.6 km/h 3.5 mph /  5.6 km/h 98 % 0.03 in /  0.76 mm 0.0 W/m2 -RA
04:20 55.2 °F /  12.9 °C 54.6 °F /  12.6 °C 30.38 in /  1028.7 hPa South 2.3 mph /  3.7 km/h 2.3 mph /  3.7 km/h 98 % 0.03 in /  0.76 mm 0.0 W/m2 -RA
04:25 55.1 °F /  12.8 °C 54.5 °F /  12.5 °C 30.37 in /  1028.3 hPa SSE 4.0 mph /  6.4 km/h 4.0 mph /  6.4 km/h 98 % 0.04 in /  1.02 mm 0.0 W/m2 -RA
04:26 55.2 °F /  12.9 °C 54.6 °F /  12.6 °C 30.37 in /  1028.3 hPa SSE 3.5 mph /  5.6 km/h 3.5 mph /  5.6 km/h 98 % 0.04 in /  1.02 mm 0.0 W/m2 -RA
04:31 55.1 °F /  12.8 °C 54.5 °F /  12.5 °C 30.37 in /  1028.3 hPa SSE 5.0 mph /  8 km/h 5.0 mph /  8 km/h 98 % 0.05 in /  1.27 mm 0.0 W/m2 -RA
04:36 55.2 °F /  12.9 °C 54.6 °F /  12.6 °C 30.37 in /  1028.3 hPa SSE 3.5 mph /  5.6 km/h 3.5 mph /  5.6 km/h 98 % 0.04 in /  1.02 mm 0.0 W/m2 -RA
04:41 55.2 °F /  12.9 °C 54.6 °F /  12.6 °C 30.37 in /  1028.3 hPa SSE 3.5 mph /  5.6 km/h 3.5 mph /  5.6 km/h 98 % 0.04 in /  1.02 mm 0.0 W/m2 -RA
04:46 55.3 °F /  12.9 °C 54.7 °F /  12.6 °C 30.37 in /  1028.3 hPa SSE 2.3 mph /  3.7 km/h 2.3 mph /  3.7 km/h 98 % 0.04 in /  1.02 mm 0.0 W/m2 -RA
04:51 55.3 °F /  12.9 °C 54.7 °F /  12.6 °C 30.37 in /  1028.3 hPa SSE 2.3 mph /  3.7 km/h 2.3 mph /  3.7 km/h 98 % 0.04 in /  1.02 mm 0.0 W/m2 -RA
04:56 55.4 °F /  13 °C 54.8 °F /  12.7 °C 30.37 in /  1028.3 hPa NW 2.3 mph /  3.7 km/h 2.3 mph /  3.7 km/h 98 % 0.04 in /  1.02 mm 0.0 W/m2 -RA
05:01 55.4 °F /  13 °C 54.8 °F /  12.7 °C 30.37 in /  1028.3 hPa SSE 3.5 mph /  5.6 km/h 3.5 mph /  5.6 km/h 98 % 0.04 in /  1.02 mm 0.0 W/m2 OVC
05:06 55.5 °F /  13.1 °C 54.9 °F /  12.7 °C 30.37 in /  1028.3 hPa SSE 2.0 mph /  3.2 km/h 2.0 mph /  3.2 km/h 98 % 0.04 in /  1.02 mm 0.0 W/m2 OVC
05:11 55.4 °F /  13 °C 54.8 °F /  12.7 °C 30.36 in /  1028 hPa SSE 2.3 mph /  3.7 km/h 2.3 mph /  3.7 km/h 98 % 0.03 in /  0.76 mm 0.0 W/m2 OVC
05:16 55.4 °F /  13 °C 54.8 °F /  12.7 °C 30.37 in /  1028.3 hPa SSE 3.5 mph /  5.6 km/h 3.5 mph /  5.6 km/h 98 % 0.02 in /  0.51 mm 0.0 W/m2 OVC
05:21 55.4 °F /  13 °C 54.8 °F /  12.7 °C 30.36 in /  1028 hPa SSE 3.5 mph /  5.6 km/h 3.5 mph /  5.6 km/h 98 % 0.01 in /  0.25 mm 0.0 W/m2 OVC
05:26 55.3 °F /  12.9 °C 54.7 °F /  12.6 °C 30.37 in /  1028.3 hPa South 3.5 mph /  5.6 km/h 3.5 mph /  5.6 km/h 98 % 0.01 in /  0.25 mm 0.0 W/m2 OVC
05:31 55.3 °F /  12.9 °C 54.7 °F /  12.6 °C 30.37 in /  1028.3 hPa South 3.5 mph /  5.6 km/h 3.5 mph /  5.6 km/h 98 % 0.00 in /  0 mm 0.0 W/m2 OVC
05:36 55.3 °F /  12.9 °C 54.7 °F /  12.6 °C 30.37 in /  1028.3 hPa South 4.6 mph /  7.4 km/h 4.6 mph /  7.4 km/h 98 % 0.00 in /  0 mm 0.0 W/m2 OVC
05:41 55.3 °F /  12.9 °C 54.7 °F /  12.6 °C 30.37 in /  1028.3 hPa SSE 1.2 mph /  1.9 km/h 1.2 mph /  1.9 km/h 98 % 0.00 in /  0 mm 0.0 W/m2 OVC
05:46 55.4 °F /  13 °C 54.8 °F /  12.7 °C 30.37 in /  1028.3 hPa SSE 2.3 mph /  3.7 km/h 2.3 mph /  3.7 km/h 98 % 0.00 in /  0 mm 0.0 W/m2 OVC
05:51 55.3 °F /  12.9 °C 54.7 °F /  12.6 °C 30.36 in /  1028 hPa SSE 5.0 mph /  8 km/h 5.0 mph /  8 km/h 98 % 0.00 in /  0 mm 0.0 W/m2 OVC
05:56 55.4 °F /  13 °C 54.8 °F /  12.7 °C 30.36 in /  1028 hPa SSE 3.5 mph /  5.6 km/h 3.5 mph /  5.6 km/h 98 % 0.00 in /  0 mm 0.0 W/m2 OVC
06:01 55.4 °F /  13 °C 54.8 °F /  12.7 °C 30.37 in /  1028.3 hPa South 2.3 mph /  3.7 km/h 2.3 mph /  3.7 km/h 98 % 0.00 in /  0 mm 0.0 W/m2 OVC
06:06 55.3 °F /  12.9 °C 54.7 °F /  12.6 °C 30.36 in /  1028 hPa Calm     98 % 0.00 in /  0 mm 0.0 W/m2 OVC
06:11 55.3 °F /  12.9 °C 54.7 °F /  12.6 °C 30.36 in /  1028 hPa SSE 3.5 mph /  5.6 km/h 3.5 mph /  5.6 km/h 98 % 0.00 in /  0 mm 0.0 W/m2 OVC
06:16 55.3 °F /  12.9 °C 54.7 °F /  12.6 °C 30.36 in /  1028 hPa SSE 3.5 mph /  5.6 km/h 3.5 mph /  5.6 km/h 98 % 0.00 in /  0 mm 0.0 W/m2 OVC
06:21 55.4 °F /  13 °C 54.8 °F /  12.7 °C 30.36 in /  1028 hPa SSE 4.0 mph /  6.4 km/h 4.0 mph /  6.4 km/h 98 % 0.00 in /  0 mm 0.0 W/m2 OVC
06:26 55.4 °F /  13 °C 54.8 °F /  12.7 °C 30.36 in /  1028 hPa SE 3.5 mph /  5.6 km/h 3.5 mph /  5.6 km/h 98 % 0.00 in /  0 mm 0.0 W/m2 OVC
06:31 55.4 °F /  13 °C 54.8 °F /  12.7 °C 30.36 in /  1028 hPa WSW 2.3 mph /  3.7 km/h 2.3 mph /  3.7 km/h 98 % 0.00 in /  0 mm 0.0 W/m2 OVC
06:36 55.4 °F /  13 °C 54.8 °F /  12.7 °C 30.37 in /  1028.3 hPa WNW 2.3 mph /  3.7 km/h 2.3 mph /  3.7 km/h 98 % 0.00 in /  0 mm 0.0 W/m2 OVC
06:41 55.4 °F /  13 °C 54.8 °F /  12.7 °C 30.37 in /  1028.3 hPa SW 2.3 mph /  3.7 km/h 2.3 mph /  3.7 km/h 98 % 0.00 in /  0 mm 0.0 W/m2 OVC
06:46 55.4 °F /  13 °C 54.8 °F /  12.7 °C 30.38 in /  1028.7 hPa SW 2.3 mph /  3.7 km/h 2.3 mph /  3.7 km/h 98 % 0.00 in /  0 mm 0.0 W/m2 OVC
06:51 55.4 °F /  13 °C 54.8 °F /  12.7 °C 30.37 in /  1028.3 hPa Calm     98 % 0.00 in /  0 mm 0.0 W/m2 OVC
06:56 55.3 °F /  12.9 °C 54.7 °F /  12.6 °C 30.37 in /  1028.3 hPa South 1.2 mph /  1.9 km/h 1.2 mph /  1.9 km/h 98 % 0.00 in /  0 mm 0.0 W/m2 OVC
07:01 55.3 °F /  12.9 °C 54.7 °F /  12.6 °C 30.37 in /  1028.3 hPa SSW 1.2 mph /  1.9 km/h   98 % 0.00 in /  0 mm 7.0 W/m2 OVC
07:06 55.3 °F /  12.9 °C 54.7 °F /  12.6 °C 30.38 in /  1028.7 hPa Calm     98 % 0.00 in /  0 mm 11.0 W/m2 OVC
07:11 55.3 °F /  12.9 °C 54.7 °F /  12.6 °C 30.38 in /  1028.7 hPa Calm     98 % 0.00 in /  0 mm 14.0 W/m2 OVC
07:16 55.4 °F /  13 °C 54.8 °F /  12.7 °C 30.38 in /  1028.7 hPa SSW 1.0 mph /  1.6 km/h 1.0 mph /  1.6 km/h 98 % 0.00 in /  0 mm 16.0 W/m2 OVC
07:21 55.4 °F /  13 °C 54.8 °F /  12.7 °C 30.37 in /  1028.3 hPa SW 2.0 mph /  3.2 km/h 2.0 mph /  3.2 km/h 98 % 0.00 in /  0 mm 40.0 W/m2 OVC
07:26 55.5 °F /  13.1 °C 54.9 °F /  12.7 °C 30.37 in /  1028.3 hPa South 1.2 mph /  1.9 km/h 1.2 mph /  1.9 km/h 98 % 0.00 in /  0 mm 37.0 W/m2 OVC
07:31 55.5 °F /  13.1 °C 54.9 °F /  12.7 °C 30.38 in /  1028.7 hPa SSE 3.0 mph /  4.8 km/h 3.0 mph /  4.8 km/h 98 % 0.00 in /  0 mm 32.0 W/m2 OVC
07:36 55.5 °F /  13.1 °C 54.9 °F /  12.7 °C 30.38 in /  1028.7 hPa Calm     98 % 0.00 in /  0 mm 39.0 W/m2 OVC
07:41 55.6 °F /  13.1 °C 55.0 °F /  12.8 °C 30.38 in /  1028.7 hPa WNW 3.0 mph /  4.8 km/h 3.0 mph /  4.8 km/h 98 % 0.00 in /  0 mm 47.0 W/m2 OVC
07:46 55.6 °F /  13.1 °C 55.0 °F /  12.8 °C 30.38 in /  1028.7 hPa West 5.8 mph /  9.3 km/h 5.8 mph /  9.3 km/h 98 % 0.00 in /  0 mm 42.0 W/m2 OVC
07:51 55.7 °F /  13.2 °C 55.1 °F /  12.8 °C 30.38 in /  1028.7 hPa SSE 2.0 mph /  3.2 km/h 2.0 mph /  3.2 km/h 98 % 0.00 in /  0 mm 35.0 W/m2 OVC
07:56 55.7 °F /  13.2 °C 55.1 °F /  12.8 °C 30.38 in /  1028.7 hPa East 3.5 mph /  5.6 km/h 3.5 mph /  5.6 km/h 98 % 0.00 in /  0 mm 30.0 W/m2 OVC
08:01 55.6 °F /  13.1 °C 54.8 °F /  12.7 °C 30.38 in /  1028.7 hPa West 3.5 mph /  5.6 km/h 3.5 mph /  5.6 km/h 97 % 0.00 in /  0 mm 25.0 W/m2 OVC
08:06 55.5 °F /  13.1 °C 54.7 °F /  12.6 °C 30.38 in /  1028.7 hPa WSW 5.8 mph /  9.3 km/h 5.8 mph /  9.3 km/h 97 % 0.00 in /  0 mm 33.0 W/m2 OVC
08:11 55.5 °F /  13.1 °C 54.7 °F /  12.6 °C 30.38 in /  1028.7 hPa NE 3.0 mph /  4.8 km/h 3.0 mph /  4.8 km/h 97 % 0.01 in /  0.25 mm 40.0 W/m2 RA
08:16 55.5 °F /  13.1 °C 54.7 °F /  12.6 °C 30.37 in /  1028.3 hPa SSE 5.8 mph /  9.3 km/h 5.8 mph /  9.3 km/h 97 % 0.02 in /  0.51 mm 62.0 W/m2 RA
08:21 55.6 °F /  13.1 °C 54.8 °F /  12.7 °C 30.37 in /  1028.3 hPa NW 4.6 mph /  7.4 km/h 4.6 mph /  7.4 km/h 97 % 0.02 in /  0.51 mm 62.0 W/m2 RA
08:26 55.6 °F /  13.1 °C 54.8 °F /  12.7 °C 30.37 in /  1028.3 hPa SSW 6.9 mph /  11.1 km/h 6.9 mph /  11.1 km/h 97 % 0.02 in /  0.51 mm 60.0 W/m2 OVC
08:31 55.7 °F /  13.2 °C 54.9 °F /  12.7 °C 30.37 in /  1028.3 hPa West 2.3 mph /  3.7 km/h 2.3 mph /  3.7 km/h 97 % 0.03 in /  0.76 mm 53.0 W/m2 RA
08:36 55.7 °F /  13.2 °C 54.9 °F /  12.7 °C 30.38 in /  1028.7 hPa NNW 1.2 mph /  1.9 km/h   97 % 0.03 in /  0.76 mm 42.0 W/m2 RA
08:41 55.7 °F /  13.2 °C 54.9 °F /  12.7 °C 30.38 in /  1028.7 hPa SE 2.3 mph /  3.7 km/h 2.3 mph /  3.7 km/h 97 % 0.03 in /  0.76 mm 49.0 W/m2 OVC
08:46 55.7 °F /  13.2 °C 54.9 °F /  12.7 °C 30.38 in /  1028.7 hPa West 3.5 mph /  5.6 km/h 3.5 mph /  5.6 km/h 97 % 0.03 in /  0.76 mm 47.0 W/m2 OVC
08:51 55.7 °F /  13.2 °C 54.9 °F /  12.7 °C 30.38 in /  1028.7 hPa West 3.5 mph /  5.6 km/h 3.5 mph /  5.6 km/h 97 % 0.03 in /  0.76 mm 67.0 W/m2 OVC
08:56 55.7 °F /  13.2 °C 54.9 °F /  12.7 °C 30.38 in /  1028.7 hPa SW 3.5 mph /  5.6 km/h 3.5 mph /  5.6 km/h 97 % 0.03 in /  0.76 mm 65.0 W/m2 OVC
09:01 55.8 °F /  13.2 °C 55.0 °F /  12.8 °C 30.38 in /  1028.7 hPa West 2.3 mph /  3.7 km/h 2.3 mph /  3.7 km/h 97 % 0.03 in /  0.76 mm 69.0 W/m2 OVC
09:06 55.8 °F /  13.2 °C 55.0 °F /  12.8 °C 30.38 in /  1028.7 hPa WNW 2.3 mph /  3.7 km/h 2.3 mph /  3.7 km/h 97 % 0.03 in /  0.76 mm 49.0 W/m2 OVC
09:11 55.7 °F /  13.2 °C 54.9 °F /  12.7 °C 30.38 in /  1028.7 hPa SSE 4.6 mph /  7.4 km/h 4.6 mph /  7.4 km/h 97 % 0.02 in /  0.51 mm 51.0 W/m2 OVC
09:16 55.7 °F /  13.2 °C 54.9 °F /  12.7 °C 30.38 in /  1028.7 hPa SSE 3.5 mph /  5.6 km/h 3.5 mph /  5.6 km/h 97 % 0.02 in /  0.51 mm 72.0 W/m2 RA
09:21 55.7 °F /  13.2 °C 54.9 °F /  12.7 °C 30.38 in /  1028.7 hPa SW 6.9 mph /  11.1 km/h 6.9 mph /  11.1 km/h 97 % 0.03 in /  0.76 mm 70.0 W/m2 RA
09:26 55.8 °F /  13.2 °C 55.0 °F /  12.8 °C 30.37 in /  1028.3 hPa NW 4.6 mph /  7.4 km/h 4.6 mph /  7.4 km/h 97 % 0.03 in /  0.76 mm 86.0 W/m2 RA
09:31 55.8 °F /  13.2 °C 55.0 °F /  12.8 °C 30.37 in /  1028.3 hPa South 4.6 mph /  7.4 km/h 4.6 mph /  7.4 km/h 97 % 0.02 in /  0.51 mm 104.0 W/m2 OVC
09:36 55.9 °F /  13.3 °C 55.1 °F /  12.8 °C 30.37 in /  1028.3 hPa SSE 4.6 mph /  7.4 km/h 4.6 mph /  7.4 km/h 97 % 0.02 in /  0.51 mm 81.0 W/m2 OVC
09:41 56.0 °F /  13.3 °C 55.2 °F /  12.9 °C 30.36 in /  1028 hPa WNW 2.3 mph /  3.7 km/h 2.3 mph /  3.7 km/h 97 % 0.02 in /  0.51 mm 54.0 W/m2 OVC
09:46 56.0 °F /  13.3 °C 55.2 °F /  12.9 °C 30.36 in /  1028 hPa SSW 3.5 mph /  5.6 km/h 3.5 mph /  5.6 km/h 97 % 0.02 in /  0.51 mm 53.0 W/m2 OVC
09:51 56.1 °F /  13.4 °C 55.3 °F /  12.9 °C 30.36 in /  1028 hPa West 4.0 mph /  6.4 km/h 4.0 mph /  6.4 km/h 97 % 0.02 in /  0.51 mm 63.0 W/m2 OVC
09:56 56.1 °F /  13.4 °C 55.3 °F /  12.9 °C 30.36 in /  1028 hPa South 4.6 mph /  7.4 km/h 4.6 mph /  7.4 km/h 97 % 0.02 in /  0.51 mm 95.0 W/m2 OVC
10:01 56.3 °F /  13.5 °C 55.5 °F /  13.1 °C 30.36 in /  1028 hPa South 1.2 mph /  1.9 km/h 1.2 mph /  1.9 km/h 97 % 0.02 in /  0.51 mm 132.0 W/m2 OVC
10:06 56.5 °F /  13.6 °C 55.7 °F /  13.2 °C 30.36 in /  1028 hPa SW 3.0 mph /  4.8 km/h 3.0 mph /  4.8 km/h 97 % 0.02 in /  0.51 mm 107.0 W/m2 OVC
10:11 56.7 °F /  13.7 °C 55.9 °F /  13.3 °C 30.36 in /  1028 hPa SSE 5.0 mph /  8 km/h 5.0 mph /  8 km/h 97 % 0.02 in /  0.51 mm 95.0 W/m2 OVC
10:16 56.8 °F /  13.8 °C 56.0 °F /  13.3 °C 30.36 in /  1028 hPa SSE 2.3 mph /  3.7 km/h 2.3 mph /  3.7 km/h 97 % 0.01 in /  0.25 mm 149.0 W/m2 OVC
10:21 57.0 °F /  13.9 °C 56.2 °F /  13.4 °C 30.36 in /  1028 hPa SSE 3.5 mph /  5.6 km/h 3.5 mph /  5.6 km/h 97 % 0.00 in /  0 mm 130.0 W/m2 OVC
10:26 57.3 °F /  14.1 °C 56.5 °F /  13.6 °C 30.35 in /  1027.7 hPa SSE 2.3 mph /  3.7 km/h 2.3 mph /  3.7 km/h 97 % 0.00 in /  0 mm 134.0 W/m2 OVC
10:31 57.5 °F /  14.2 °C 56.7 °F /  13.7 °C 30.35 in /  1027.7 hPa South 1.2 mph /  1.9 km/h 1.2 mph /  1.9 km/h 97 % 0.00 in /  0 mm 125.0 W/m2 OVC
10:36 57.5 °F /  14.2 °C 56.7 °F /  13.7 °C 30.35 in /  1027.7 hPa SSE 4.0 mph /  6.4 km/h 4.0 mph /  6.4 km/h 97 % 0.00 in /  0 mm 109.0 W/m2 OVC
10:41 57.7 °F /  14.3 °C 56.9 °F /  13.8 °C 30.35 in /  1027.7 hPa WSW 3.5 mph /  5.6 km/h 3.5 mph /  5.6 km/h 97 % 0.00 in /  0 mm 77.0 W/m2 OVC
10:46 57.7 °F /  14.3 °C 56.9 °F /  13.8 °C 30.35 in /  1027.7 hPa SE 2.3 mph /  3.7 km/h 2.3 mph /  3.7 km/h 97 % 0.00 in /  0 mm 51.0 W/m2 OVC
10:51 57.7 °F /  14.3 °C 56.9 °F /  13.8 °C 30.35 in /  1027.7 hPa South 3.5 mph /  5.6 km/h 3.5 mph /  5.6 km/h 97 % 0.00 in /  0 mm 93.0 W/m2 OVC
10:56 57.9 °F /  14.4 °C 57.1 °F /  13.9 °C 30.35 in /  1027.7 hPa South 3.5 mph /  5.6 km/h 3.5 mph /  5.6 km/h 97 % 0.00 in /  0 mm 118.0 W/m2 OVC
11:01 58.2 °F /  14.6 °C 57.4 °F /  14.1 °C 30.34 in /  1027.3 hPa WNW 2.3 mph /  3.7 km/h 2.3 mph /  3.7 km/h 97 % 0.00 in /  0 mm 118.0 W/m2 OVC
11:06 58.4 °F /  14.7 °C 57.6 °F /  14.2 °C 30.34 in /  1027.3 hPa ENE 2.3 mph /  3.7 km/h 2.3 mph /  3.7 km/h 97 % 0.00 in /  0 mm 116.0 W/m2 OVC
11:11 58.6 °F /  14.8 °C 57.5 °F /  14.2 °C 30.33 in /  1027 hPa SW 3.5 mph /  5.6 km/h 3.5 mph /  5.6 km/h 96 % 0.00 in /  0 mm 107.0 W/m2 OVC
11:16 58.8 °F /  14.9 °C 57.7 °F /  14.3 °C 30.33 in /  1027 hPa SSE 3.5 mph /  5.6 km/h 3.5 mph /  5.6 km/h 96 % 0.00 in /  0 mm 107.0 W/m2 OVC
11:21 59.0 °F /  15 °C 57.9 °F /  14.4 °C 30.33 in /  1027 hPa SE 4.0 mph /  6.4 km/h 4.0 mph /  6.4 km/h 96 % 0.00 in /  0 mm 130.0 W/m2 OVC
11:26 59.1 °F /  15.1 °C 58.0 °F /  14.4 °C 30.32 in /  1026.6 hPa SSE 8.1 mph /  13 km/h 8.1 mph /  13 km/h 96 % 0.00 in /  0 mm 227.0 W/m2 OVC
11:31 59.6 °F /  15.3 °C 58.5 °F /  14.7 °C 30.32 in /  1026.6 hPa East 3.5 mph /  5.6 km/h 3.5 mph /  5.6 km/h 96 % 0.00 in /  0 mm 223.0 W/m2 OVC
11:36 59.6 °F /  15.3 °C 58.2 °F /  14.6 °C 30.32 in /  1026.6 hPa SSE 5.8 mph /  9.3 km/h 5.8 mph /  9.3 km/h 95 % 0.00 in /  0 mm 188.0 W/m2 OVC
11:41 59.7 °F /  15.4 °C 58.3 °F /  14.6 °C 30.31 in /  1026.3 hPa SSE 5.0 mph /  8 km/h 5.0 mph /  8 km/h 95 % 0.00 in /  0 mm 179.0 W/m2 OVC
11:46 59.7 °F /  15.4 °C 58.0 °F /  14.4 °C 30.31 in /  1026.3 hPa NE 4.6 mph /  7.4 km/h 4.6 mph /  7.4 km/h 94 % 0.00 in /  0 mm 221.0 W/m2 OVC
11:51 59.9 °F /  15.5 °C 58.2 °F /  14.6 °C 30.30 in /  1026 hPa NW 3.5 mph /  5.6 km/h 3.5 mph /  5.6 km/h 94 % 0.00 in /  0 mm 149.0 W/m2 OVC
11:56 59.9 °F /  15.5 °C 58.2 °F /  14.6 °C 30.30 in /  1026 hPa SE 3.5 mph /  5.6 km/h 3.5 mph /  5.6 km/h 94 % 0.00 in /  0 mm 135.0 W/m2 OVC
12:01 59.9 °F /  15.5 °C 58.2 °F /  14.6 °C 30.30 in /  1026 hPa SSE 3.5 mph /  5.6 km/h 3.5 mph /  5.6 km/h 94 % 0.00 in /  0 mm 142.0 W/m2 OVC
12:06 59.9 °F /  15.5 °C 58.2 °F /  14.6 °C 30.30 in /  1026 hPa SSE 6.9 mph /  11.1 km/h 6.9 mph /  11.1 km/h 94 % 0.00 in /  0 mm 88.0 W/m2 OVC
12:11 59.9 °F /  15.5 °C 58.2 °F /  14.6 °C 30.30 in /  1026 hPa SW 4.6 mph /  7.4 km/h 4.6 mph /  7.4 km/h 94 % 0.00 in /  0 mm 107.0 W/m2 OVC
12:16 59.9 °F /  15.5 °C 58.2 °F /  14.6 °C 30.30 in /  1026 hPa West 2.3 mph /  3.7 km/h 2.3 mph /  3.7 km/h 94 % 0.00 in /  0 mm 72.0 W/m2 OVC
12:21 59.8 °F /  15.4 °C 58.1 °F /  14.5 °C 30.30 in /  1026 hPa NW 6.9 mph /  11.1 km/h 6.9 mph /  11.1 km/h 94 % 0.00 in /  0 mm 56.0 W/m2 OVC
12:26 59.7 °F /  15.4 °C 58.0 °F /  14.4 °C 30.29 in /  1025.6 hPa West 6.0 mph /  9.7 km/h 6.0 mph /  9.7 km/h 94 % 0.00 in /  0 mm 67.0 W/m2 OVC
12:31 59.7 °F /  15.4 °C 58.0 °F /  14.4 °C 30.29 in /  1025.6 hPa SE 4.0 mph /  6.4 km/h 4.0 mph /  6.4 km/h 94 % 0.00 in /  0 mm 83.0 W/m2 OVC
12:36 59.7 °F /  15.4 °C 58.0 °F /  14.4 °C 30.29 in /  1025.6 hPa SSE 9.2 mph /  14.8 km/h 9.2 mph /  14.8 km/h 94 % 0.00 in /  0 mm 84.0 W/m2 OVC
12:41 59.7 °F /  15.4 °C 58.0 °F /  14.4 °C 30.28 in /  1025.3 hPa West 4.6 mph /  7.4 km/h 4.6 mph /  7.4 km/h 94 % 0.01 in /  0.25 mm 88.0 W/m2 RA
12:46 59.8 °F /  15.4 °C 58.1 °F /  14.5 °C 30.28 in /  1025.3 hPa SSW 3.5 mph /  5.6 km/h 3.5 mph /  5.6 km/h 94 % 0.01 in /  0.25 mm 81.0 W/m2 RA
12:51 59.7 °F /  15.4 °C 58.0 °F /  14.4 °C 30.28 in /  1025.3 hPa SSE 5.0 mph /  8 km/h 5.0 mph /  8 km/h 94 % 0.01 in /  0.25 mm 54.0 W/m2 OVC
12:56 59.6 °F /  15.3 °C 57.9 °F /  14.4 °C 30.28 in /  1025.3 hPa WNW 4.6 mph /  7.4 km/h 4.6 mph /  7.4 km/h 94 % 0.01 in /  0.25 mm 54.0 W/m2 OVC
13:01 59.5 °F /  15.3 °C 58.1 °F /  14.5 °C 30.28 in /  1025.3 hPa West 3.0 mph /  4.8 km/h 3.0 mph /  4.8 km/h 95 % 0.01 in /  0.25 mm 25.0 W/m2 OVC
13:06 59.4 °F /  15.2 °C 58.0 °F /  14.4 °C 30.28 in /  1025.3 hPa WSW 2.3 mph /  3.7 km/h 2.3 mph /  3.7 km/h 95 % 0.01 in /  0.25 mm 23.0 W/m2 OVC
13:11 59.2 °F /  15.1 °C 57.8 °F /  14.3 °C 30.27 in /  1024.9 hPa South 1.2 mph /  1.9 km/h 1.2 mph /  1.9 km/h 95 % 0.01 in /  0.25 mm 30.0 W/m2 OVC
13:16 59.0 °F /  15 °C 57.9 °F /  14.4 °C 30.27 in /  1024.9 hPa SSE 2.3 mph /  3.7 km/h 2.3 mph /  3.7 km/h 96 % 0.01 in /  0.25 mm 32.0 W/m2 OVC
13:21 59.0 °F /  15 °C 57.9 °F /  14.4 °C 30.27 in /  1024.9 hPa West 1.2 mph /  1.9 km/h   96 % 0.01 in /  0.25 mm 46.0 W/m2 OVC
13:26 59.0 °F /  15 °C 57.9 °F /  14.4 °C 30.27 in /  1024.9 hPa South 3.5 mph /  5.6 km/h 3.5 mph /  5.6 km/h 96 % 0.01 in /  0.25 mm 42.0 W/m2 OVC
13:31 58.9 °F /  14.9 °C 57.8 °F /  14.3 °C 30.27 in /  1024.9 hPa SSE 3.5 mph /  5.6 km/h 3.5 mph /  5.6 km/h 96 % 0.01 in /  0.25 mm 26.0 W/m2 OVC
13:36 58.9 °F /  14.9 °C 57.8 °F /  14.3 °C 30.26 in /  1024.6 hPa SSE 6.9 mph /  11.1 km/h 6.9 mph /  11.1 km/h 96 % 0.01 in /  0.25 mm 37.0 W/m2 OVC
13:41 59.0 °F /  15 °C 57.9 °F /  14.4 °C 30.26 in /  1024.6 hPa South 4.0 mph /  6.4 km/h 4.0 mph /  6.4 km/h 96 % 0.00 in /  0 mm 30.0 W/m2 OVC
13:46 59.0 °F /  15 °C 57.9 °F /  14.4 °C 30.26 in /  1024.6 hPa West 3.5 mph /  5.6 km/h 3.5 mph /  5.6 km/h 96 % 0.00 in /  0 mm 51.0 W/m2 OVC
13:51 59.0 °F /  15 °C 57.9 °F /  14.4 °C 30.25 in /  1024.3 hPa WSW 2.3 mph /  3.7 km/h 2.3 mph /  3.7 km/h 96 % 0.00 in /  0 mm 37.0 W/m2 OVC
13:56 58.9 °F /  14.9 °C 57.8 °F /  14.3 °C 30.25 in /  1024.3 hPa South 2.0 mph /  3.2 km/h 2.0 mph /  3.2 km/h 96 % 0.00 in /  0 mm 47.0 W/m2 OVC
14:01 58.8 °F /  14.9 °C 57.7 °F /  14.3 °C 30.25 in /  1024.3 hPa WNW 2.3 mph /  3.7 km/h 2.3 mph /  3.7 km/h 96 % 0.01 in /  0.25 mm 42.0 W/m2 -RA
14:06 58.8 °F /  14.9 °C 57.7 °F /  14.3 °C 30.25 in /  1024.3 hPa SSE 4.6 mph /  7.4 km/h 4.6 mph /  7.4 km/h 96 % 0.02 in /  0.51 mm 32.0 W/m2 -RA
14:11 58.7 °F /  14.8 °C 57.9 °F /  14.4 °C 30.25 in /  1024.3 hPa South 3.5 mph /  5.6 km/h 3.5 mph /  5.6 km/h 97 % 0.04 in /  1.02 mm 39.0 W/m2 -RA
14:16 58.6 °F /  14.8 °C 57.8 °F /  14.3 °C 30.24 in /  1023.9 hPa South 3.5 mph /  5.6 km/h 3.5 mph /  5.6 km/h 97 % 0.05 in /  1.27 mm 54.0 W/m2 -RA
14:21 58.5 °F /  14.7 °C 57.7 °F /  14.3 °C 30.24 in /  1023.9 hPa SSE 4.6 mph /  7.4 km/h 4.6 mph /  7.4 km/h 97 % 0.06 in /  1.52 mm 70.0 W/m2 -RA
14:26 58.5 °F /  14.7 °C 57.7 °F /  14.3 °C 30.24 in /  1023.9 hPa South 6.9 mph /  11.1 km/h 6.9 mph /  11.1 km/h 97 % 0.06 in /  1.52 mm 83.0 W/m2 -RA
14:31 58.6 °F /  14.8 °C 57.8 °F /  14.3 °C 30.23 in /  1023.6 hPa South 5.8 mph /  9.3 km/h 5.8 mph /  9.3 km/h 97 % 0.06 in /  1.52 mm 90.0 W/m2 -RA
14:36 58.6 °F /  14.8 °C 57.8 °F /  14.3 °C 30.23 in /  1023.6 hPa NW 2.3 mph /  3.7 km/h 2.3 mph /  3.7 km/h 97 % 0.06 in /  1.52 mm 67.0 W/m2 -RA
14:41 58.7 °F /  14.8 °C 57.9 °F /  14.4 °C 30.23 in /  1023.6 hPa South 4.6 mph /  7.4 km/h 4.6 mph /  7.4 km/h 97 % 0.06 in /  1.52 mm 58.0 W/m2 -RA
14:46 58.7 °F /  14.8 °C 57.9 °F /  14.4 °C 30.23 in /  1023.6 hPa SE 2.0 mph /  3.2 km/h 2.0 mph /  3.2 km/h 97 % 0.07 in /  1.78 mm 54.0 W/m2 -RA
14:51 58.7 °F /  14.8 °C 57.9 °F /  14.4 °C 30.22 in /  1023.2 hPa SSE 4.6 mph /  7.4 km/h 4.6 mph /  7.4 km/h 97 % 0.07 in /  1.78 mm 67.0 W/m2 -RA
14:56 58.8 °F /  14.9 °C 58.0 °F /  14.4 °C 30.22 in /  1023.2 hPa SSE 4.6 mph /  7.4 km/h 4.6 mph /  7.4 km/h 97 % 0.07 in /  1.78 mm 76.0 W/m2 -RA
15:01 58.9 °F /  14.9 °C 58.1 °F /  14.5 °C 30.22 in /  1023.2 hPa South 3.5 mph /  5.6 km/h 3.5 mph /  5.6 km/h 97 % 0.06 in /  1.52 mm 60.0 W/m2 -RA
15:06 59.0 °F /  15 °C 58.2 °F /  14.6 °C 30.22 in /  1023.2 hPa South 2.3 mph /  3.7 km/h 2.3 mph /  3.7 km/h 97 % 0.05 in /  1.27 mm 44.0 W/m2 -RA
15:11 59.0 °F /  15 °C 58.2 °F /  14.6 °C 30.22 in /  1023.2 hPa South 3.5 mph /  5.6 km/h 3.5 mph /  5.6 km/h 97 % 0.03 in /  0.76 mm 49.0 W/m2 -RA
15:16 59.1 °F /  15.1 °C 58.2 °F /  14.6 °C 30.22 in /  1023.2 hPa South 3.5 mph /  5.6 km/h 3.5 mph /  5.6 km/h 97 % 0.02 in /  0.51 mm 44.0 W/m2 -RA
15:21 59.1 °F /  15.1 °C 58.2 °F /  14.6 °C 30.22 in /  1023.2 hPa South 2.3 mph /  3.7 km/h 2.3 mph /  3.7 km/h 97 % 0.01 in /  0.25 mm 30.0 W/m2 -RA
15:26 59.0 °F /  15 °C 58.2 °F /  14.6 °C 30.22 in /  1023.2 hPa South 2.0 mph /  3.2 km/h 2.0 mph /  3.2 km/h 97 % 0.01 in /  0.25 mm 32.0 W/m2 -RA
15:31 59.0 °F /  15 °C 58.2 °F /  14.6 °C 30.22 in /  1023.2 hPa SSE 4.6 mph /  7.4 km/h 4.6 mph /  7.4 km/h 97 % 0.01 in /  0.25 mm 47.0 W/m2 -RA
15:36 59.1 °F /  15.1 °C 58.2 °F /  14.6 °C 30.22 in /  1023.2 hPa South 4.6 mph /  7.4 km/h 4.6 mph /  7.4 km/h 97 % 0.01 in /  0.25 mm 32.0 W/m2 -RA
15:41 59.0 °F /  15 °C 58.2 °F /  14.6 °C 30.22 in /  1023.2 hPa West 5.8 mph /  9.3 km/h 5.8 mph /  9.3 km/h 97 % 0.01 in /  0.25 mm 40.0 W/m2 -RA
15:46 59.1 °F /  15.1 °C 58.2 °F /  14.6 °C 30.22 in /  1023.2 hPa South 3.5 mph /  5.6 km/h 3.5 mph /  5.6 km/h 97 % 0.00 in /  0 mm 32.0 W/m2 -RA
15:51 59.0 °F /  15 °C 58.2 °F /  14.6 °C 30.22 in /  1023.2 hPa SSE 4.6 mph /  7.4 km/h 4.6 mph /  7.4 km/h 97 % 0.00 in /  0 mm 21.0 W/m2 -RA
15:56 59.0 °F /  15 °C 58.2 °F /  14.6 °C 30.22 in /  1023.2 hPa South 3.5 mph /  5.6 km/h 3.5 mph /  5.6 km/h 97 % 0.00 in /  0 mm 14.0 W/m2 -RA
16:01 59.0 °F /  15 °C 58.2 °F /  14.6 °C 30.22 in /  1023.2 hPa South 2.3 mph /  3.7 km/h 2.3 mph /  3.7 km/h 97 % 0.00 in /  0 mm 9.0 W/m2 -RA
16:06 58.9 °F /  14.9 °C 58.1 °F /  14.5 °C 30.21 in /  1022.9 hPa South 4.6 mph /  7.4 km/h 4.6 mph /  7.4 km/h 97 % 0.00 in /  0 mm 11.0 W/m2 -RA
16:11 58.9 °F /  14.9 °C 58.1 °F /  14.5 °C 30.22 in /  1023.2 hPa SSE 5.0 mph /  8 km/h 5.0 mph /  8 km/h 97 % 0.01 in /  0.25 mm 7.0 W/m2 -RA
16:16 58.8 °F /  14.9 °C 58.0 °F /  14.4 °C 30.21 in /  1022.9 hPa South 5.8 mph /  9.3 km/h 5.8 mph /  9.3 km/h 97 % 0.01 in /  0.25 mm 7.0 W/m2 -RA
16:21 58.8 °F /  14.9 °C 58.0 °F /  14.4 °C 30.21 in /  1022.9 hPa NW 3.5 mph /  5.6 km/h 3.5 mph /  5.6 km/h 97 % 0.03 in /  0.76 mm 7.0 W/m2 RA
16:26 58.7 °F /  14.8 °C 57.9 °F /  14.4 °C 30.20 in /  1022.6 hPa SSE 5.0 mph /  8 km/h 5.0 mph /  8 km/h 97 % 0.04 in /  1.02 mm 7.0 W/m2 RA
16:31 58.7 °F /  14.8 °C 57.9 °F /  14.4 °C 30.20 in /  1022.6 hPa SSE 1.2 mph /  1.9 km/h 1.2 mph /  1.9 km/h 97 % 0.05 in /  1.27 mm 9.0 W/m2 RA
16:36 58.6 °F /  14.8 °C 57.8 °F /  14.3 °C 30.21 in /  1022.9 hPa South 2.0 mph /  3.2 km/h 2.0 mph /  3.2 km/h 97 % 0.07 in /  1.78 mm 0.0 W/m2 RA
16:41 58.6 °F /  14.8 °C 57.8 °F /  14.3 °C 30.21 in /  1022.9 hPa South 2.3 mph /  3.7 km/h 2.3 mph /  3.7 km/h 97 % 0.08 in /  2.03 mm 0.0 W/m2 RA
16:46 58.6 °F /  14.8 °C 57.8 °F /  14.3 °C 30.20 in /  1022.6 hPa South 3.5 mph /  5.6 km/h 3.5 mph /  5.6 km/h 97 % 0.13 in /  3.3 mm 5.0 W/m2 RA
16:51 58.6 °F /  14.8 °C 57.8 °F /  14.3 °C 30.20 in /  1022.6 hPa SSW 2.3 mph /  3.7 km/h 2.3 mph /  3.7 km/h 97 % 0.14 in /  3.56 mm 0.0 W/m2 -RA
16:56 58.6 °F /  14.8 °C 58.0 °F /  14.4 °C 30.20 in /  1022.6 hPa SSE 2.3 mph /  3.7 km/h 2.3 mph /  3.7 km/h 98 % 0.14 in /  3.56 mm 0.0 W/m2 -RA
17:01 58.6 °F /  14.8 °C 58.0 °F /  14.4 °C 30.20 in /  1022.6 hPa SW 3.5 mph /  5.6 km/h 3.5 mph /  5.6 km/h 98 % 0.16 in /  4.06 mm 5.0 W/m2 -RA
17:06 58.5 °F /  14.7 °C 57.9 °F /  14.4 °C 30.19 in /  1022.2 hPa South 2.3 mph /  3.7 km/h 2.3 mph /  3.7 km/h 98 % 0.16 in /  4.06 mm 0.0 W/m2 -RA
17:11 58.5 °F /  14.7 °C 57.9 °F /  14.4 °C 30.18 in /  1021.9 hPa SSE 4.0 mph /  6.4 km/h 4.0 mph /  6.4 km/h 98 % 0.15 in /  3.81 mm 0.0 W/m2 -RA
17:16 58.5 °F /  14.7 °C 57.9 °F /  14.4 °C 30.18 in /  1021.9 hPa SSE 6.9 mph /  11.1 km/h 6.9 mph /  11.1 km/h 98 % 0.16 in /  4.06 mm 0.0 W/m2 -RA
17:21 58.5 °F /  14.7 °C 57.9 °F /  14.4 °C 30.18 in /  1021.9 hPa SSE 3.5 mph /  5.6 km/h 3.5 mph /  5.6 km/h 98 % 0.14 in /  3.56 mm 0.0 W/m2 -RA
17:26 58.6 °F /  14.8 °C 58.0 °F /  14.4 °C 30.18 in /  1021.9 hPa SSW 8.1 mph /  13 km/h 8.1 mph /  13 km/h 98 % 0.13 in /  3.3 mm 0.0 W/m2 -RA
17:31 58.6 °F /  14.8 °C 58.0 °F /  14.4 °C 30.18 in /  1021.9 hPa South 4.6 mph /  7.4 km/h 4.6 mph /  7.4 km/h 98 % 0.12 in /  3.05 mm 0.0 W/m2 -RA
17:36 58.7 °F /  14.8 °C 58.1 °F /  14.5 °C 30.19 in /  1022.2 hPa NW 3.5 mph /  5.6 km/h 3.5 mph /  5.6 km/h 98 % 0.11 in /  2.79 mm 0.0 W/m2 -RA
17:41 58.7 °F /  14.8 °C 58.1 °F /  14.5 °C 30.19 in /  1022.2 hPa WSW 5.8 mph /  9.3 km/h 5.8 mph /  9.3 km/h 98 % 0.10 in /  2.54 mm 0.0 W/m2 -RA
17:46 58.7 °F /  14.8 °C 58.1 °F /  14.5 °C 30.19 in /  1022.2 hPa SSE 3.5 mph /  5.6 km/h 3.5 mph /  5.6 km/h 98 % 0.05 in /  1.27 mm 0.0 W/m2 -RA
17:51 58.8 °F /  14.9 °C 58.2 °F /  14.6 °C 30.19 in /  1022.2 hPa West 2.3 mph /  3.7 km/h 2.3 mph /  3.7 km/h 98 % 0.04 in /  1.02 mm 0.0 W/m2 -RA
17:56 58.8 °F /  14.9 °C 58.2 °F /  14.6 °C 30.19 in /  1022.2 hPa WNW 3.5 mph /  5.6 km/h 3.5 mph /  5.6 km/h 98 % 0.04 in /  1.02 mm 0.0 W/m2 -RA
18:02 58.8 °F /  14.9 °C 58.2 °F /  14.6 °C 30.19 in /  1022.2 hPa WSW 1.2 mph /  1.9 km/h 1.2 mph /  1.9 km/h 98 % 0.02 in /  0.51 mm 0.0 W/m2 OVC
18:07 58.8 °F /  14.9 °C 58.2 °F /  14.6 °C 30.19 in /  1022.2 hPa WNW 3.5 mph /  5.6 km/h 3.5 mph /  5.6 km/h 98 % 0.02 in /  0.51 mm 0.0 W/m2 OVC
18:12 58.9 °F /  14.9 °C 58.3 °F /  14.6 °C 30.20 in /  1022.6 hPa West 2.3 mph /  3.7 km/h 2.3 mph /  3.7 km/h 98 % 0.02 in /  0.51 mm 0.0 W/m2 OVC
18:17 58.8 °F /  14.9 °C 58.2 °F /  14.6 °C 30.19 in /  1022.2 hPa SSW 1.2 mph /  1.9 km/h 1.2 mph /  1.9 km/h 98 % 0.01 in /  0.25 mm 0.0 W/m2 OVC
18:22 58.9 °F /  14.9 °C 58.3 °F /  14.6 °C 30.19 in /  1022.2 hPa SE 3.5 mph /  5.6 km/h 3.5 mph /  5.6 km/h 98 % 0.01 in /  0.25 mm 0.0 W/m2 OVC
18:26 59.0 °F /  15 °C 58.4 °F /  14.7 °C 30.19 in /  1022.2 hPa South 3.5 mph /  5.6 km/h 3.5 mph /  5.6 km/h 98 % 0.02 in /  0.51 mm 0.0 W/m2 RA
18:31 59.0 °F /  15 °C 58.4 °F /  14.7 °C 30.19 in /  1022.2 hPa West 2.3 mph /  3.7 km/h 2.3 mph /  3.7 km/h 98 % 0.02 in /  0.51 mm 0.0 W/m2 RA
18:36 59.1 °F /  15.1 °C 58.5 °F /  14.7 °C 30.19 in /  1022.2 hPa WNW 4.6 mph /  7.4 km/h 4.6 mph /  7.4 km/h 98 % 0.02 in /  0.51 mm 0.0 W/m2 RA
18:41 59.2 °F /  15.1 °C 58.6 °F /  14.8 °C 30.19 in /  1022.2 hPa NW 4.6 mph /  7.4 km/h 4.6 mph /  7.4 km/h 98 % 0.02 in /  0.51 mm 0.0 W/m2 RA
18:47 59.3 °F /  15.2 °C 58.7 °F /  14.8 °C 30.19 in /  1022.2 hPa West 3.5 mph /  5.6 km/h 3.5 mph /  5.6 km/h 98 % 0.02 in /  0.51 mm 0.0 W/m2 OVC
18:52 59.3 °F /  15.2 °C 58.7 °F /  14.8 °C 30.19 in /  1022.2 hPa SW 3.5 mph /  5.6 km/h 3.5 mph /  5.6 km/h 98 % 0.02 in /  0.51 mm 0.0 W/m2 OVC
18:57 59.3 °F /  15.2 °C 58.7 °F /  14.8 °C 30.19 in /  1022.2 hPa WNW 3.5 mph /  5.6 km/h 3.5 mph /  5.6 km/h 98 % 0.02 in /  0.51 mm 0.0 W/m2 OVC
19:01 59.4 °F /  15.2 °C 58.8 °F /  14.9 °C 30.19 in /  1022.2 hPa ESE 1.2 mph /  1.9 km/h 1.2 mph /  1.9 km/h 98 % 0.02 in /  0.51 mm 0.0 W/m2 OVC
19:07 59.4 °F /  15.2 °C 58.8 °F /  14.9 °C 30.19 in /  1022.2 hPa West 2.3 mph /  3.7 km/h 2.3 mph /  3.7 km/h 98 % 0.02 in /  0.51 mm 0.0 W/m2 OVC
19:12 59.5 °F /  15.3 °C 58.9 °F /  14.9 °C 30.19 in /  1022.2 hPa WSW 3.5 mph /  5.6 km/h 3.5 mph /  5.6 km/h 98 % 0.02 in /  0.51 mm 0.0 W/m2 OVC
19:17 59.5 °F /  15.3 °C 58.9 °F /  14.9 °C 30.19 in /  1022.2 hPa West 3.5 mph /  5.6 km/h 3.5 mph /  5.6 km/h 98 % 0.02 in /  0.51 mm 0.0 W/m2 OVC
19:22 59.6 °F /  15.3 °C 59.0 °F /  15 °C 30.19 in /  1022.2 hPa ENE 6.9 mph /  11.1 km/h 6.9 mph /  11.1 km/h 98 % 0.02 in /  0.51 mm 0.0 W/m2 OVC
19:27 59.6 °F /  15.3 °C 59.0 °F /  15 °C 30.19 in /  1022.2 hPa NNW 3.5 mph /  5.6 km/h 3.5 mph /  5.6 km/h 98 % 0.01 in /  0.25 mm 0.0 W/m2 OVC
19:33 59.7 °F /  15.4 °C 59.1 °F /  15.1 °C 30.19 in /  1022.2 hPa NW 4.6 mph /  7.4 km/h 4.6 mph /  7.4 km/h 98 % 0.00 in /  0 mm 0.0 W/m2 OVC
19:38 59.7 °F /  15.4 °C 59.1 °F /  15.1 °C 30.19 in /  1022.2 hPa ESE 2.3 mph /  3.7 km/h 2.3 mph /  3.7 km/h 98 % 0.00 in /  0 mm 0.0 W/m2 OVC
19:43 59.7 °F /  15.4 °C 59.1 °F /  15.1 °C 30.19 in /  1022.2 hPa South 3.5 mph /  5.6 km/h 3.5 mph /  5.6 km/h 98 % 0.00 in /  0 mm 0.0 W/m2 OVC
19:48 59.8 °F /  15.4 °C 59.2 °F /  15.1 °C 30.19 in /  1022.2 hPa West 4.6 mph /  7.4 km/h 4.6 mph /  7.4 km/h 98 % 0.00 in /  0 mm 0.0 W/m2 OVC
19:53 59.8 °F /  15.4 °C 59.2 °F /  15.1 °C 30.19 in /  1022.2 hPa SSE 5.8 mph /  9.3 km/h 5.8 mph /  9.3 km/h 98 % 0.00 in /  0 mm 0.0 W/m2 OVC
19:58 59.9 °F /  15.5 °C 59.3 °F /  15.2 °C 30.19 in /  1022.2 hPa SSW 5.0 mph /  8 km/h 5.0 mph /  8 km/h 98 % 0.00 in /  0 mm 0.0 W/m2 OVC
20:03 59.9 °F /  15.5 °C 59.3 °F /  15.2 °C 30.19 in /  1022.2 hPa SE 6.9 mph /  11.1 km/h 6.9 mph /  11.1 km/h 98 % 0.00 in /  0 mm 0.0 W/m2 OVC
20:08 59.9 °F /  15.5 °C 59.3 °F /  15.2 °C 30.19 in /  1022.2 hPa West 2.3 mph /  3.7 km/h 2.3 mph /  3.7 km/h 98 % 0.00 in /  0 mm 0.0 W/m2 OVC
20:13 59.9 °F /  15.5 °C 59.3 °F /  15.2 °C 30.19 in /  1022.2 hPa WNW 3.5 mph /  5.6 km/h 3.5 mph /  5.6 km/h 98 % 0.00 in /  0 mm 0.0 W/m2 OVC
20:18 60.0 °F /  15.6 °C 59.4 °F /  15.2 °C 30.19 in /  1022.2 hPa NW 2.3 mph /  3.7 km/h 2.3 mph /  3.7 km/h 98 % 0.00 in /  0 mm 0.0 W/m2 OVC
20:23 60.0 °F /  15.6 °C 59.4 °F /  15.2 °C 30.19 in /  1022.2 hPa SE 4.6 mph /  7.4 km/h 4.6 mph /  7.4 km/h 98 % 0.00 in /  0 mm 0.0 W/m2 OVC
20:28 60.1 °F /  15.6 °C 59.5 °F /  15.3 °C 30.19 in /  1022.2 hPa WNW 3.5 mph /  5.6 km/h 3.5 mph /  5.6 km/h 98 % 0.00 in /  0 mm 0.0 W/m2 OVC
20:33 60.0 °F /  15.6 °C 59.4 °F /  15.2 °C 30.19 in /  1022.2 hPa West 3.5 mph /  5.6 km/h 3.5 mph /  5.6 km/h 98 % 0.00 in /  0 mm 0.0 W/m2 OVC
20:38 60.1 °F /  15.6 °C 59.5 °F /  15.3 °C 30.19 in /  1022.2 hPa WNW 3.5 mph /  5.6 km/h 3.5 mph /  5.6 km/h 98 % 0.00 in /  0 mm 0.0 W/m2 OVC
20:43 60.1 °F /  15.6 °C 59.5 °F /  15.3 °C 30.19 in /  1022.2 hPa SSE 4.6 mph /  7.4 km/h 4.6 mph /  7.4 km/h 98 % 0.00 in /  0 mm 0.0 W/m2 OVC
20:48 60.1 °F /  15.6 °C 59.5 °F /  15.3 °C 30.18 in /  1021.9 hPa SE 3.5 mph /  5.6 km/h 3.5 mph /  5.6 km/h 98 % 0.00 in /  0 mm 0.0 W/m2 OVC
20:53 60.1 °F /  15.6 °C 59.5 °F /  15.3 °C 30.18 in /  1021.9 hPa SW 4.6 mph /  7.4 km/h 4.6 mph /  7.4 km/h 98 % 0.00 in /  0 mm 0.0 W/m2 OVC
20:58 60.2 °F /  15.7 °C 59.6 °F /  15.3 °C 30.18 in /  1021.9 hPa Calm   0.3 mph /  0.5 km/h 98 % 0.00 in /  0 mm 0.0 W/m2 OVC
21:03 60.2 °F /  15.7 °C 59.6 °F /  15.3 °C 30.18 in /  1021.9 hPa SE 6.0 mph /  9.7 km/h 6.0 mph /  9.7 km/h 98 % 0.00 in /  0 mm 0.0 W/m2 OVC
21:08 60.2 °F /  15.7 °C 59.6 °F /  15.3 °C 30.18 in /  1021.9 hPa SSE 6.0 mph /  9.7 km/h 6.0 mph /  9.7 km/h 98 % 0.00 in /  0 mm 0.0 W/m2 OVC
21:13 60.2 °F /  15.7 °C 59.6 °F /  15.3 °C 30.18 in /  1021.9 hPa West 3.5 mph /  5.6 km/h 3.5 mph /  5.6 km/h 98 % 0.00 in /  0 mm 0.0 W/m2 OVC
21:18 60.3 °F /  15.7 °C 59.7 °F /  15.4 °C 30.19 in /  1022.2 hPa SW 2.3 mph /  3.7 km/h 2.3 mph /  3.7 km/h 98 % 0.00 in /  0 mm 0.0 W/m2 OVC
21:23 60.3 °F /  15.7 °C 59.7 °F /  15.4 °C 30.18 in /  1021.9 hPa SSE 4.6 mph /  7.4 km/h 4.6 mph /  7.4 km/h 98 % 0.00 in /  0 mm 0.0 W/m2 OVC
21:28 60.4 °F /  15.8 °C 59.8 °F /  15.4 °C 30.18 in /  1021.9 hPa South 4.6 mph /  7.4 km/h 4.6 mph /  7.4 km/h 98 % 0.00 in /  0 mm 0.0 W/m2 OVC
21:33 60.5 °F /  15.8 °C 59.9 °F /  15.5 °C 30.17 in /  1021.6 hPa South 3.5 mph /  5.6 km/h 3.5 mph /  5.6 km/h 98 % 0.00 in /  0 mm 0.0 W/m2 OVC
21:38 60.4 °F /  15.8 °C 59.8 °F /  15.4 °C 30.17 in /  1021.6 hPa SSW 3.0 mph /  4.8 km/h 3.0 mph /  4.8 km/h 98 % 0.00 in /  0 mm 0.0 W/m2 OVC
21:43 60.4 °F /  15.8 °C 59.8 °F /  15.4 °C 30.18 in /  1021.9 hPa West 3.5 mph /  5.6 km/h 3.5 mph /  5.6 km/h 98 % 0.00 in /  0 mm 0.0 W/m2 OVC
21:48 60.4 °F /  15.8 °C 59.5 °F /  15.3 °C 30.17 in /  1021.6 hPa SSE 2.3 mph /  3.7 km/h   97 % 0.00 in /  0 mm 0.0 W/m2 OVC
21:53 60.4 °F /  15.8 °C 59.8 °F /  15.4 °C 30.17 in /  1021.6 hPa SSE 2.3 mph /  3.7 km/h 2.3 mph /  3.7 km/h 98 % 0.00 in /  0 mm 0.0 W/m2 OVC
21:58 60.4 °F /  15.8 °C 59.8 °F /  15.4 °C 30.17 in /  1021.6 hPa West 4.6 mph /  7.4 km/h 4.6 mph /  7.4 km/h 98 % 0.00 in /  0 mm 0.0 W/m2 OVC
22:03 60.5 °F /  15.8 °C 59.6 °F /  15.3 °C 30.17 in /  1021.6 hPa West 3.5 mph /  5.6 km/h 3.5 mph /  5.6 km/h 97 % 0.00 in /  0 mm 0.0 W/m2 OVC
22:08 60.6 °F /  15.9 °C 59.7 °F /  15.4 °C 30.16 in /  1021.2 hPa SSE 1.2 mph /  1.9 km/h 1.2 mph /  1.9 km/h 97 % 0.00 in /  0 mm 0.0 W/m2 OVC
22:13 60.5 °F /  15.8 °C 59.6 °F /  15.3 °C 30.16 in /  1021.2 hPa WSW 4.6 mph /  7.4 km/h 4.6 mph /  7.4 km/h 97 % 0.00 in /  0 mm 0.0 W/m2 OVC
22:18 60.6 °F /  15.9 °C 59.7 °F /  15.4 °C 30.16 in /  1021.2 hPa SSE 3.5 mph /  5.6 km/h 3.5 mph /  5.6 km/h 97 % 0.00 in /  0 mm 0.0 W/m2 OVC
22:23 60.7 °F /  15.9 °C 59.8 °F /  15.4 °C 30.16 in /  1021.2 hPa WSW 3.5 mph /  5.6 km/h 3.5 mph /  5.6 km/h 97 % 0.00 in /  0 mm 0.0 W/m2 OVC
22:28 60.7 °F /  15.9 °C 59.8 °F /  15.4 °C 30.16 in /  1021.2 hPa WSW 3.5 mph /  5.6 km/h 3.5 mph /  5.6 km/h 97 % 0.00 in /  0 mm 0.0 W/m2 OVC
22:33 60.8 °F /  16 °C 60.2 °F /  15.7 °C 30.16 in /  1021.2 hPa WNW 4.0 mph /  6.4 km/h 4.0 mph /  6.4 km/h 98 % 0.00 in /  0 mm 0.0 W/m2 OVC
22:38 61.0 °F /  16.1 °C 60.4 °F /  15.8 °C 30.16 in /  1021.2 hPa West 3.5 mph /  5.6 km/h 3.5 mph /  5.6 km/h 98 % 0.00 in /  0 mm 0.0 W/m2 OVC
22:43 61.0 °F /  16.1 °C 60.1 °F /  15.6 °C 30.15 in /  1020.9 hPa SE 5.8 mph /  9.3 km/h 5.8 mph /  9.3 km/h 97 % 0.00 in /  0 mm 0.0 W/m2 OVC
22:48 61.2 °F /  16.2 °C 60.3 °F /  15.7 °C 30.15 in /  1020.9 hPa SE 4.6 mph /  7.4 km/h 4.6 mph /  7.4 km/h 97 % 0.00 in /  0 mm 0.0 W/m2 OVC
22:53 61.2 °F /  16.2 °C 60.3 °F /  15.7 °C 30.15 in /  1020.9 hPa WNW 5.8 mph /  9.3 km/h 5.8 mph /  9.3 km/h 97 % 0.00 in /  0 mm 0.0 W/m2 OVC
22:58 61.3 °F /  16.3 °C 60.4 °F /  15.8 °C 30.15 in /  1020.9 hPa SSW 8.1 mph /  13 km/h 8.1 mph /  13 km/h 97 % 0.00 in /  0 mm 0.0 W/m2 OVC
23:03 61.4 °F /  16.3 °C 60.5 °F /  15.8 °C 30.15 in /  1020.9 hPa NW 3.5 mph /  5.6 km/h 3.5 mph /  5.6 km/h 97 % 0.00 in /  0 mm 0.0 W/m2 OVC
23:08 61.5 °F /  16.4 °C 60.6 °F /  15.9 °C 30.15 in /  1020.9 hPa WNW 2.3 mph /  3.7 km/h 2.3 mph /  3.7 km/h 97 % 0.00 in /  0 mm 0.0 W/m2 OVC
23:13 61.4 °F /  16.3 °C 60.5 °F /  15.8 °C 30.15 in /  1020.9 hPa WNW 4.6 mph /  7.4 km/h 4.6 mph /  7.4 km/h 97 % 0.00 in /  0 mm 0.0 W/m2 OVC
23:18 61.5 °F /  16.4 °C 60.6 °F /  15.9 °C 30.16 in /  1021.2 hPa NNE 3.5 mph /  5.6 km/h 3.5 mph /  5.6 km/h 97 % 0.00 in /  0 mm 0.0 W/m2 OVC
23:23 61.5 °F /  16.4 °C 60.6 °F /  15.9 °C 30.15 in /  1020.9 hPa SW 2.3 mph /  3.7 km/h 2.3 mph /  3.7 km/h 97 % 0.00 in /  0 mm 0.0 W/m2 OVC
23:28 61.5 °F /  16.4 °C 60.6 °F /  15.9 °C 30.14 in /  1020.5 hPa NE 8.1 mph /  13 km/h 8.1 mph /  13 km/h 97 % 0.00 in /  0 mm 0.0 W/m2 OVC
23:33 61.6 °F /  16.4 °C 60.7 °F /  15.9 °C 30.14 in /  1020.5 hPa West 8.1 mph /  13 km/h 8.1 mph /  13 km/h 97 % 0.00 in /  0 mm 0.0 W/m2 OVC
23:38 61.6 °F /  16.4 °C 60.7 °F /  15.9 °C 30.14 in /  1020.5 hPa ESE 3.5 mph /  5.6 km/h 3.5 mph /  5.6 km/h 97 % 0.00 in /  0 mm 0.0 W/m2 OVC
23:43 61.7 °F /  16.5 °C 60.8 °F /  16 °C 30.14 in /  1020.5 hPa South 6.9 mph /  11.1 km/h 6.9 mph /  11.1 km/h 97 % 0.00 in /  0 mm 0.0 W/m2 OVC
23:48 61.7 °F /  16.5 °C 60.8 °F /  16 °C 30.14 in /  1020.5 hPa SSE 5.8 mph /  9.3 km/h 5.8 mph /  9.3 km/h 97 % 0.00 in /  0 mm 0.0 W/m2 OVC
23:53 61.7 °F /  16.5 °C 60.8 °F /  16 °C 30.14 in /  1020.5 hPa WNW 3.5 mph /  5.6 km/h 3.5 mph /  5.6 km/h 97 % 0.00 in /  0 mm 0.0 W/m2 OVC
23:58 61.7 °F /  16.5 °C 60.8 °F /  16 °C 30.14 in /  1020.5 hPa WSW 3.5 mph /  5.6 km/h 3.5 mph /  5.6 km/h 97 % 0.01 in /  0.25 mm 0.0 W/m2 RA
Murfreesboro Weather Live
Compliments of Weather Underground - 2.5 mb